To NAV CANADA Home Page Login to a new session Search on AWWS site Feedback and Comments Disclaimer Vers la page française équivalente Tips FAQ What's new on the site To the Forecasts and Observations / NOTAM section To "File a Flight Plan" website Publications and other links Update of the User's profile FIC Telephone Numbers My Weather Data Folder Route Weather Data Regional Weather Data Local Weather Data To the Forecasts and Observations / NOTAM section
Request Generated 04/25/2014 at 01:06:12 UTC . Weather information available at that time is displayed.

METAR/TAF

TRENTON/ON    

METAR CYTR 250100Z 09002KT 15SM FEW120 05/M00 A3005 RMK AC1 SLP180=
METAR CYTR 250000Z 21006KT 15SM FEW120 FEW250 07/M02 A3004 RMK AC1CI1 SLP176=
METAR CYTR 242300Z 20009KT 15SM FEW120 FEW250 09/M02 A3004 RMK AC1CI1 SLP175=

TAF CYTR 242330Z 2500/2524 20008KT P6SM FEW120 FEW250
BECMG 2501/2503 02008KT BKN120 BKN250
FM251200 04005KT P6SM OVC100
BECMG 2513/2515 10012KT
FM251900 09012KT P6SM BKN050 TEMPO 2519/2524 P6SM -SHRA
RMK NXT FCST BY 250600Z=
Your time UTC time
Weather data provided by Environment Canada and NAV CANADA